Atlantic - Newfoundland: Past 24 Hour Conditions

 

Daniel's Harbour

04:30 PM NDT 03 August 2015
Disclaimer

This table is a summary of hourly weather conditions for the past 24 hours.
Please note that these observations might not always be representative of weather conditions over their associated marine area.

Date / Time
(NDT)
Wind(knots) Conditions Visibility(km) Pressure(kPa) Air tempC) Relative humidity(%) Dew pointC)
03 August 2015
16:30 SSW 11 gust 16 N/A 15 101.2 17 75 13
15:30 SSW 11 gust 18 N/A 15 101.2 17 73 12
14:30 SSW 9 N/A 15 101.1 17 74 12
13:30 SSW 11 gust 17 N/A 15 101.1 18 74 13
12:30 SSW 8 gust 15 N/A 15 101.0 17 76 13
11:30 SSW 13 N/A 15 100.9 17 75 12
10:30 SW 9 gust 19 N/A 15 100.9 17 75 12
9:30 SSW 10 gust 17 N/A 15 100.8 16 77 11
8:30 SSW 13 gust 20 N/A 15 100.7 15 77 11
7:30 SSW 12 gust 18 N/A 15 100.6 15 76 11
6:30 SSW 13 gust 19 N/A 15 100.5 15 76 11
5:30 SSW 15 gust 21 N/A 15 100.5 15 75 11
4:30 SSW 18 gust 26 N/A 15 100.4 16 74 11
3:30 SSW 16 gust 29 N/A 15 100.4 15 77 11
2:30 SSW 19 gust 28 N/A 15 100.4 16 78 12
1:30 SSW 22 gust 28 N/A 15 100.4 16 78 12
0:30 SSW 19 gust 27 N/A 15 100.4 16 78 12
02 August 2015
23:30 SSW 16 gust 25 N/A 15 100.4 15 81 12
22:30 SSW 14 gust 25 N/A 15 100.4 15 82 12
21:30 SSW 17 gust 25 N/A 15 100.4 15 81 12
20:30 SSW 15 gust 21 N/A 11 100.4 15 82 12
19:30 SSW 16 N/A 15 100.3 16 81 12
18:30 SSW 20 gust 26 N/A 15 100.3 16 79 13
17:30 SSW 15 gust 22 N/A 15 100.3 16 80 12
16:30 SSW 14 gust 19 N/A 15 100.3 16 80 13

Zoom-in to make a selection

Map of Atlantic - Newfoundland marine weather areas Southwestern Grand Banks - 44138 Banquereau - 44139 Tail of the Bank - 44140 Nickerson Bank - 44251 Northeast Burgeo Bank - 44255 Blanc-Sablon Airport Cap Whittle Chevery Natashquan Airport Heath Point Miscou Island Grand Étang Ingonish Beach North Mountain St.Paul Island J.A. Douglas McCurdy Sydney Airport Charlottetown Airport East Point North Cape Argentia Bonavista Burgeo Cape Race Corner Brook Daniel's Harbour Englee Ferolle Point La Scie Port aux Basques Rocky Harbour Sagona Island St. Anthony Airport St. John's Int'l Airport St. Lawrence Stephenville Airport Twillingate Winterland Wreckhouse Cartwright Airport Mary's Harbour Grates Cove Pool's Island Marticot Island Long Pond Eskasoni (First Nations) Îles de la Madeleine Airport
Legend:
buoy Buoy
land station Land Station

Atlantic - Newfoundland Area

Another Region

What we are doing

Date modified: